sensor_id;sensor_type;location;lat;lon;timestamp;temperature;humidity
26479;DHT22;14163;-26.142;27.992;2022-12-18T00:00:05;23.30;99.90
26479;DHT22;14163;-26.142;27.992;2022-12-18T05:58:52;22.30;99.90
26479;DHT22;14163;-26.142;27.992;2022-12-18T06:01:23;19.20;99.90
26479;DHT22;14163;-26.142;27.992;2022-12-18T06:03:52;19.80;99.90
26479;DHT22;14163;-26.142;27.992;2022-12-18T06:06:21;20.60;99.90
26479;DHT22;14163;-26.142;27.992;2022-12-18T06:08:50;21.20;99.90
26479;DHT22;14163;-26.142;27.992;2022-12-18T06:11:19;21.70;99.90
26479;DHT22;14163;-26.142;27.992;2022-12-18T06:13:49;22.20;99.90
26479;DHT22;14163;-26.142;27.992;2022-12-18T06:16:19;22.40;99.90
26479;DHT22;14163;-26.142;27.992;2022-12-18T06:18:48;22.70;99.90
26479;DHT22;14163;-26.142;27.992;2022-12-18T06:21:16;22.70;99.90
26479;DHT22;14163;-26.142;27.992;2022-12-18T06:23:44;22.80;99.90
26479;DHT22;14163;-26.142;27.992;2022-12-18T06:26:12;23.00;99.90
26479;DHT22;14163;-26.142;27.992;2022-12-18T06:28:41;23.20;99.90
26479;DHT22;14163;-26.142;27.992;2022-12-18T06:31:09;23.30;99.90
26479;DHT22;14163;-26.142;27.992;2022-12-18T06:33:40;23.30;99.90
26479;DHT22;14163;-26.142;27.992;2022-12-18T06:36:09;23.20;99.90
26479;DHT22;14163;-26.142;27.992;2022-12-18T06:38:38;23.30;99.90
26479;DHT22;14163;-26.142;27.992;2022-12-18T06:41:07;23.40;99.90
26479;DHT22;14163;-26.142;27.992;2022-12-18T06:43:36;23.60;99.90
26479;DHT22;14163;-26.142;27.992;2022-12-18T06:46:04;23.80;99.90
26479;DHT22;14163;-26.142;27.992;2022-12-18T06:48:32;23.90;99.90
26479;DHT22;14163;-26.142;27.992;2022-12-18T06:51:02;24.00;99.90
26479;DHT22;14163;-26.142;27.992;2022-12-18T06:53:31;23.90;99.90
26479;DHT22;14163;-26.142;27.992;2022-12-18T06:56:00;24.00;99.90
26479;DHT22;14163;-26.142;27.992;2022-12-18T06:58:28;24.20;99.90
26479;DHT22;14163;-26.142;27.992;2022-12-18T07:00:59;24.30;99.90
26479;DHT22;14163;-26.142;27.992;2022-12-18T07:03:28;24.40;99.90
26479;DHT22;14163;-26.142;27.992;2022-12-18T07:05:56;24.50;99.90
26479;DHT22;14163;-26.142;27.992;2022-12-18T07:08:26;24.60;99.90
26479;DHT22;14163;-26.142;27.992;2022-12-18T07:10:54;24.60;99.90
26479;DHT22;14163;-26.142;27.992;2022-12-18T07:13:23;24.70;99.90
26479;DHT22;14163;-26.142;27.992;2022-12-18T07:15:51;24.70;99.90
26479;DHT22;14163;-26.142;27.992;2022-12-18T07:18:19;24.70;99.90
26479;DHT22;14163;-26.142;27.992;2022-12-18T07:20:47;24.50;99.90
26479;DHT22;14163;-26.142;27.992;2022-12-18T07:23:16;24.50;99.90
26479;DHT22;14163;-26.142;27.992;2022-12-18T07:25:46;24.60;99.90
26479;DHT22;14163;-26.142;27.992;2022-12-18T07:28:14;24.60;99.90
26479;DHT22;14163;-26.142;27.992;2022-12-18T07:30:42;24.70;99.90
26479;DHT22;14163;-26.142;27.992;2022-12-18T07:33:10;24.80;99.90
26479;DHT22;14163;-26.142;27.992;2022-12-18T07:35:38;24.90;99.90
26479;DHT22;14163;-26.142;27.992;2022-12-18T07:38:07;25.00;99.90
26479;DHT22;14163;-26.142;27.992;2022-12-18T07:40:35;24.90;99.90
26479;DHT22;14163;-26.142;27.992;2022-12-18T07:43:05;24.80;99.90
26479;DHT22;14163;-26.142;27.992;2022-12-18T07:45:33;24.80;99.90
26479;DHT22;14163;-26.142;27.992;2022-12-18T07:48:01;24.90;99.90
26479;DHT22;14163;-26.142;27.992;2022-12-18T07:50:29;24.90;99.90
26479;DHT22;14163;-26.142;27.992;2022-12-18T07:52:58;25.10;99.90
26479;DHT22;14163;-26.142;27.992;2022-12-18T07:55:29;25.00;99.90
26479;DHT22;14163;-26.142;27.992;2022-12-18T07:58:00;25.00;99.90
26479;DHT22;14163;-26.142;27.992;2022-12-18T08:00:30;25.00;99.90
26479;DHT22;14163;-26.142;27.992;2022-12-18T10:07:09;23.30;99.90
26479;DHT22;14163;-26.142;27.992;2022-12-18T10:09:42;23.50;99.90
26479;DHT22;14163;-26.142;27.992;2022-12-18T10:12:13;24.10;99.90
26479;DHT22;14163;-26.142;27.992;2022-12-18T10:14:46;24.70;99.90
26479;DHT22;14163;-26.142;27.992;2022-12-18T10:17:17;25.30;99.90
26479;DHT22;14163;-26.142;27.992;2022-12-18T10:19:49;25.80;99.90
26479;DHT22;14163;-26.142;27.992;2022-12-18T10:22:25;26.10;99.90
26479;DHT22;14163;-26.142;27.992;2022-12-18T10:24:55;26.30;99.90
26479;DHT22;14163;-26.142;27.992;2022-12-18T10:27:26;26.40;99.90
26479;DHT22;14163;-26.142;27.992;2022-12-18T10:29:54;26.50;99.90
26479;DHT22;14163;-26.142;27.992;2022-12-18T10:32:23;26.50;99.90
26479;DHT22;14163;-26.142;27.992;2022-12-18T10:34:55;26.60;99.90
26479;DHT22;14163;-26.142;27.992;2022-12-18T10:37:26;26.50;99.90
26479;DHT22;14163;-26.142;27.992;2022-12-18T10:40:09;26.40;99.90
26479;DHT22;14163;-26.142;27.992;2022-12-18T10:42:38;26.60;99.90
26479;DHT22;14163;-26.142;27.992;2022-12-18T10:45:09;26.70;99.90
26479;DHT22;14163;-26.142;27.992;2022-12-18T10:47:41;26.80;99.90
26479;DHT22;14163;-26.142;27.992;2022-12-18T10:50:18;27.00;99.90
26479;DHT22;14163;-26.142;27.992;2022-12-18T10:52:54;27.00;99.90
26479;DHT22;14163;-26.142;27.992;2022-12-18T10:55:22;27.20;99.90
26479;DHT22;14163;-26.142;27.992;2022-12-18T10:57:52;27.30;99.90
26479;DHT22;14163;-26.142;27.992;2022-12-18T11:00:22;27.30;99.90
26479;DHT22;14163;-26.142;27.992;2022-12-18T11:02:51;27.40;99.90
26479;DHT22;14163;-26.142;27.992;2022-12-18T11:05:26;27.40;99.90
26479;DHT22;14163;-26.142;27.992;2022-12-18T11:07:57;27.40;99.90
26479;DHT22;14163;-26.142;27.992;2022-12-18T11:10:28;27.40;99.90
26479;DHT22;14163;-26.142;27.992;2022-12-18T11:12:56;27.30;99.90
26479;DHT22;14163;-26.142;27.992;2022-12-18T11:15:36;27.30;99.90
26479;DHT22;14163;-26.142;27.992;2022-12-18T11:18:05;27.20;99.90
26479;DHT22;14163;-26.142;27.992;2022-12-18T11:20:33;27.30;99.90
26479;DHT22;14163;-26.142;27.992;2022-12-18T11:23:05;27.40;99.90
26479;DHT22;14163;-26.142;27.992;2022-12-18T11:25:34;27.50;99.90
26479;DHT22;14163;-26.142;27.992;2022-12-18T11:28:03;27.70;99.90
26479;DHT22;14163;-26.142;27.992;2022-12-18T11:30:32;27.60;99.90
26479;DHT22;14163;-26.142;27.992;2022-12-18T11:33:03;27.60;99.90
26479;DHT22;14163;-26.142;27.992;2022-12-18T11:35:40;27.70;99.90
26479;DHT22;14163;-26.142;27.992;2022-12-18T11:38:16;27.80;99.90
26479;DHT22;14163;-26.142;27.992;2022-12-18T11:40:47;27.80;99.90
26479;DHT22;14163;-26.142;27.992;2022-12-18T11:43:20;27.90;99.90
26479;DHT22;14163;-26.142;27.992;2022-12-18T11:45:50;28.10;99.90
26479;DHT22;14163;-26.142;27.992;2022-12-18T11:48:22;28.10;99.90
26479;DHT22;14163;-26.142;27.992;2022-12-18T11:50:51;28.30;99.90
26479;DHT22;14163;-26.142;27.992;2022-12-18T11:53:22;28.40;99.90
26479;DHT22;14163;-26.142;27.992;2022-12-18T11:55:54;28.50;99.90
26479;DHT22;14163;-26.142;27.992;2022-12-18T11:58:27;28.50;99.90
26479;DHT22;14163;-26.142;27.992;2022-12-18T12:00:58;28.50;99.90
26479;DHT22;14163;-26.142;27.992;2022-12-18T12:06:13;28.40;99.90
26479;DHT22;14163;-26.142;27.992;2022-12-18T12:08:49;28.20;99.90
26479;DHT22;14163;-26.142;27.992;2022-12-18T12:11:22;28.10;99.90
26479;DHT22;14163;-26.142;27.992;2022-12-18T12:13:57;28.00;99.90
26479;DHT22;14163;-26.142;27.992;2022-12-18T12:16:29;28.10;99.90
26479;DHT22;14163;-26.142;27.992;2022-12-18T12:19:06;28.10;99.90
26479;DHT22;14163;-26.142;27.992;2022-12-18T12:21:39;28.20;99.90
26479;DHT22;14163;-26.142;27.992;2022-12-18T12:24:23;28.00;99.90
26479;DHT22;14163;-26.142;27.992;2022-12-18T12:26:54;27.90;99.90
26479;DHT22;14163;-26.142;27.992;2022-12-18T12:29:29;28.10;99.90
26479;DHT22;14163;-26.142;27.992;2022-12-18T12:32:08;28.20;99.90
26479;DHT22;14163;-26.142;27.992;2022-12-18T12:34:39;28.10;99.90
26479;DHT22;14163;-26.142;27.992;2022-12-18T12:37:15;28.20;99.90
26479;DHT22;14163;-26.142;27.992;2022-12-18T12:39:47;28.30;99.90
26479;DHT22;14163;-26.142;27.992;2022-12-18T12:42:18;28.50;99.90
26479;DHT22;14163;-26.142;27.992;2022-12-18T12:45:05;28.80;99.90
26479;DHT22;14163;-26.142;27.992;2022-12-18T12:47:35;28.90;99.90
26479;DHT22;14163;-26.142;27.992;2022-12-18T12:50:06;29.00;99.90
26479;DHT22;14163;-26.142;27.992;2022-12-18T12:52:40;29.20;99.90
26479;DHT22;14163;-26.142;27.992;2022-12-18T12:55:15;29.20;99.90
26479;DHT22;14163;-26.142;27.992;2022-12-18T12:57:45;29.20;99.90
26479;DHT22;14163;-26.142;27.992;2022-12-18T13:00:14;29.10;99.90
26479;DHT22;14163;-26.142;27.992;2022-12-18T13:02:44;29.00;99.90
26479;DHT22;14163;-26.142;27.992;2022-12-18T13:05:18;28.80;99.90
26479;DHT22;14163;-26.142;27.992;2022-12-18T13:07:49;28.70;99.90
26479;DHT22;14163;-26.142;27.992;2022-12-18T13:10:30;28.60;99.90
26479;DHT22;14163;-26.142;27.992;2022-12-18T13:13:00;28.40;99.90
26479;DHT22;14163;-26.142;27.992;2022-12-18T13:15:29;28.40;99.90
26479;DHT22;14163;-26.142;27.992;2022-12-18T13:20:47;28.60;99.90
26479;DHT22;14163;-26.142;27.992;2022-12-18T13:23:27;28.60;99.90
26479;DHT22;14163;-26.142;27.992;2022-12-18T13:25:57;28.50;99.90
26479;DHT22;14163;-26.142;27.992;2022-12-18T13:31:08;28.50;99.90
26479;DHT22;14163;-26.142;27.992;2022-12-18T13:33:41;28.50;99.90
26479;DHT22;14163;-26.142;27.992;2022-12-18T13:36:13;28.60;99.90
26479;DHT22;14163;-26.142;27.992;2022-12-18T13:38:41;28.50;99.90
26479;DHT22;14163;-26.142;27.992;2022-12-18T13:41:24;28.60;99.90
26479;DHT22;14163;-26.142;27.992;2022-12-18T13:43:54;28.60;99.90
26479;DHT22;14163;-26.142;27.992;2022-12-18T13:46:24;28.60;99.90
26479;DHT22;14163;-26.142;27.992;2022-12-18T13:48:58;28.50;99.90
26479;DHT22;14163;-26.142;27.992;2022-12-18T13:51:28;28.40;99.90
26479;DHT22;14163;-26.142;27.992;2022-12-18T13:53:58;28.40;99.90
26479;DHT22;14163;-26.142;27.992;2022-12-18T13:56:29;28.20;99.90
26479;DHT22;14163;-26.142;27.992;2022-12-18T14:01:47;28.10;99.90
26479;DHT22;14163;-26.142;27.992;2022-12-18T14:04:20;28.10;99.90
26479;DHT22;14163;-26.142;27.992;2022-12-18T14:06:50;28.00;99.90
26479;DHT22;14163;-26.142;27.992;2022-12-18T14:09:19;28.00;99.90
26479;DHT22;14163;-26.142;27.992;2022-12-18T14:11:51;28.20;99.90
26479;DHT22;14163;-26.142;27.992;2022-12-18T14:14:41;28.30;99.90
26479;DHT22;14163;-26.142;27.992;2022-12-18T14:17:10;28.30;99.90
26479;DHT22;14163;-26.142;27.992;2022-12-18T14:19:41;28.30;99.90
26479;DHT22;14163;-26.142;27.992;2022-12-18T14:22:13;28.30;99.90
26479;DHT22;14163;-26.142;27.992;2022-12-18T14:24:42;28.10;99.90
26479;DHT22;14163;-26.142;27.992;2022-12-18T14:27:23;28.10;99.90
26479;DHT22;14163;-26.142;27.992;2022-12-18T14:29:52;28.00;99.90
26479;DHT22;14163;-26.142;27.992;2022-12-18T14:32:20;27.90;99.90
26479;DHT22;14163;-26.142;27.992;2022-12-18T14:34:49;27.80;99.90
26479;DHT22;14163;-26.142;27.992;2022-12-18T14:37:17;27.80;99.90
26479;DHT22;14163;-26.142;27.992;2022-12-18T14:39:54;27.80;99.90
26479;DHT22;14163;-26.142;27.992;2022-12-18T14:42:25;27.80;99.90
26479;DHT22;14163;-26.142;27.992;2022-12-18T14:47:42;27.50;99.90
26479;DHT22;14163;-26.142;27.992;2022-12-18T14:50:12;27.40;99.90
26479;DHT22;14163;-26.142;27.992;2022-12-18T14:52:41;27.40;99.90
26479;DHT22;14163;-26.142;27.992;2022-12-18T14:55:14;27.50;99.90
26479;DHT22;14163;-26.142;27.992;2022-12-18T14:57:44;27.60;99.90
26479;DHT22;14163;-26.142;27.992;2022-12-18T15:00:15;27.50;99.90
26479;DHT22;14163;-26.142;27.992;2022-12-18T15:02:43;27.40;99.90
26479;DHT22;14163;-26.142;27.992;2022-12-18T15:05:17;27.30;99.90
26479;DHT22;14163;-26.142;27.992;2022-12-18T15:07:46;27.30;99.90
26479;DHT22;14163;-26.142;27.992;2022-12-18T15:10:15;27.30;99.90
26479;DHT22;14163;-26.142;27.992;2022-12-18T15:12:46;27.30;99.90
26479;DHT22;14163;-26.142;27.992;2022-12-18T15:18:02;27.20;99.90
26479;DHT22;14163;-26.142;27.992;2022-12-18T15:20:32;27.00;99.90
26479;DHT22;14163;-26.142;27.992;2022-12-18T15:23:01;26.90;99.90
26479;DHT22;14163;-26.142;27.992;2022-12-18T15:25:35;26.90;99.90
26479;DHT22;14163;-26.142;27.992;2022-12-18T15:28:12;26.80;99.90
26479;DHT22;14163;-26.142;27.992;2022-12-18T15:30:57;26.80;99.90
26479;DHT22;14163;-26.142;27.992;2022-12-18T15:33:26;26.60;99.90
26479;DHT22;14163;-26.142;27.992;2022-12-18T15:35:57;26.40;99.90
26479;DHT22;14163;-26.142;27.992;2022-12-18T15:38:26;26.30;99.90
26479;DHT22;14163;-26.142;27.992;2022-12-18T15:40:54;26.30;99.90
26479;DHT22;14163;-26.142;27.992;2022-12-18T15:43:24;26.30;99.90
26479;DHT22;14163;-26.142;27.992;2022-12-18T15:46:01;26.30;99.90
26479;DHT22;14163;-26.142;27.992;2022-12-18T15:48:30;26.30;99.90
26479;DHT22;14163;-26.142;27.992;2022-12-18T15:50:59;26.30;99.90
26479;DHT22;14163;-26.142;27.992;2022-12-18T15:53:29;26.30;99.90
26479;DHT22;14163;-26.142;27.992;2022-12-18T15:55:58;26.30;99.90
26479;DHT22;14163;-26.142;27.992;2022-12-18T15:58:44;26.30;99.90
26479;DHT22;14163;-26.142;27.992;2022-12-18T16:01:12;26.40;99.90
26479;DHT22;14163;-26.142;27.992;2022-12-18T16:30:22;22.90;99.90
26479;DHT22;14163;-26.142;27.992;2022-12-18T16:32:52;22.90;99.90
26479;DHT22;14163;-26.142;27.992;2022-12-18T16:35:22;23.50;99.90
26479;DHT22;14163;-26.142;27.992;2022-12-18T16:37:50;24.20;99.90
26479;DHT22;14163;-26.142;27.992;2022-12-18T16:40:19;24.80;99.90
26479;DHT22;14163;-26.142;27.992;2022-12-18T16:42:48;25.30;99.90
26479;DHT22;14163;-26.142;27.992;2022-12-18T16:45:16;25.70;99.90
26479;DHT22;14163;-26.142;27.992;2022-12-18T16:47:46;26.10;99.90
26479;DHT22;14163;-26.142;27.992;2022-12-18T16:50:15;26.30;99.90
26479;DHT22;14163;-26.142;27.992;2022-12-18T16:52:43;26.60;99.90
26479;DHT22;14163;-26.142;27.992;2022-12-18T16:55:11;26.70;99.90
26479;DHT22;14163;-26.142;27.992;2022-12-18T16:57:40;26.80;99.90
26479;DHT22;14163;-26.142;27.992;2022-12-18T17:00:08;26.80;99.90
26479;DHT22;14163;-26.142;27.992;2022-12-18T17:02:37;26.80;99.90
26479;DHT22;14163;-26.142;27.992;2022-12-18T17:05:07;26.80;99.90
26479;DHT22;14163;-26.142;27.992;2022-12-18T17:07:36;26.80;99.90
26479;DHT22;14163;-26.142;27.992;2022-12-18T17:10:04;26.80;99.90
26479;DHT22;14163;-26.142;27.992;2022-12-18T17:12:33;26.80;99.90
26479;DHT22;14163;-26.142;27.992;2022-12-18T17:15:02;26.80;99.90
26479;DHT22;14163;-26.142;27.992;2022-12-18T17:17:30;26.80;99.90
26479;DHT22;14163;-26.142;27.992;2022-12-18T17:19:58;26.70;99.90
26479;DHT22;14163;-26.142;27.992;2022-12-18T17:22:28;26.70;99.90
26479;DHT22;14163;-26.142;27.992;2022-12-18T17:24:57;26.70;99.90
26479;DHT22;14163;-26.142;27.992;2022-12-18T17:27:25;26.70;99.90
26479;DHT22;14163;-26.142;27.992;2022-12-18T17:29:53;26.60;99.90
26479;DHT22;14163;-26.142;27.992;2022-12-18T17:32:22;26.70;99.90
26479;DHT22;14163;-26.142;27.992;2022-12-18T17:34:50;26.60;99.90
26479;DHT22;14163;-26.142;27.992;2022-12-18T17:37:18;26.50;99.90
26479;DHT22;14163;-26.142;27.992;2022-12-18T17:39:48;26.60;99.90
26479;DHT22;14163;-26.142;27.992;2022-12-18T17:42:17;26.50;99.90
26479;DHT22;14163;-26.142;27.992;2022-12-18T17:44:45;26.50;99.90
26479;DHT22;14163;-26.142;27.992;2022-12-18T17:47:13;26.50;99.90
26479;DHT22;14163;-26.142;27.992;2022-12-18T17:49:41;26.50;99.90
26479;DHT22;14163;-26.142;27.992;2022-12-18T17:52:10;26.50;99.90
26479;DHT22;14163;-26.142;27.992;2022-12-18T17:54:38;26.50;99.90
26479;DHT22;14163;-26.142;27.992;2022-12-18T17:57:10;26.40;99.90
26479;DHT22;14163;-26.142;27.992;2022-12-18T17:59:38;26.40;99.90
26479;DHT22;14163;-26.142;27.992;2022-12-18T18:02:08;26.40;99.90
26479;DHT22;14163;-26.142;27.992;2022-12-18T18:04:37;26.40;99.90
26479;DHT22;14163;-26.142;27.992;2022-12-18T18:07:05;26.50;99.90
26479;DHT22;14163;-26.142;27.992;2022-12-18T18:09:34;26.50;99.90
26479;DHT22;14163;-26.142;27.992;2022-12-18T18:12:03;26.50;99.90
26479;DHT22;14163;-26.142;27.992;2022-12-18T18:14:49;26.50;99.90
26479;DHT22;14163;-26.142;27.992;2022-12-18T18:17:18;26.40;99.90
26479;DHT22;14163;-26.142;27.992;2022-12-18T18:19:46;26.30;99.90
26479;DHT22;14163;-26.142;27.992;2022-12-18T18:23:34;26.40;99.90
26479;DHT22;14163;-26.142;27.992;2022-12-18T18:26:02;26.40;99.90
26479;DHT22;14163;-26.142;27.992;2022-12-18T18:28:31;26.30;99.90
26479;DHT22;14163;-26.142;27.992;2022-12-18T18:31:02;26.30;99.90
26479;DHT22;14163;-26.142;27.992;2022-12-18T18:33:31;26.30;99.90
26479;DHT22;14163;-26.142;27.992;2022-12-18T18:36:00;26.40;99.90
26479;DHT22;14163;-26.142;27.992;2022-12-18T18:38:28;26.30;99.90
26479;DHT22;14163;-26.142;27.992;2022-12-18T18:40:59;26.30;99.90
26479;DHT22;14163;-26.142;27.992;2022-12-18T18:43:27;26.30;99.90
26479;DHT22;14163;-26.142;27.992;2022-12-18T18:45:56;26.30;99.90
26479;DHT22;14163;-26.142;27.992;2022-12-18T18:48:25;26.30;99.90
26479;DHT22;14163;-26.142;27.992;2022-12-18T18:50:56;26.30;99.90
26479;DHT22;14163;-26.142;27.992;2022-12-18T18:53:25;26.30;99.90
26479;DHT22;14163;-26.142;27.992;2022-12-18T18:55:53;26.30;99.90
26479;DHT22;14163;-26.142;27.992;2022-12-18T18:58:23;26.30;99.90
26479;DHT22;14163;-26.142;27.992;2022-12-18T19:00:55;26.30;99.90
26479;DHT22;14163;-26.142;27.992;2022-12-18T19:03:23;26.30;99.90
26479;DHT22;14163;-26.142;27.992;2022-12-18T19:05:52;26.30;99.90
26479;DHT22;14163;-26.142;27.992;2022-12-18T19:08:21;26.30;99.90
26479;DHT22;14163;-26.142;27.992;2022-12-18T19:10:50;26.40;99.90
26479;DHT22;14163;-26.142;27.992;2022-12-18T19:13:19;26.40;99.90
26479;DHT22;14163;-26.142;27.992;2022-12-18T19:15:48;26.40;99.90
26479;DHT22;14163;-26.142;27.992;2022-12-18T19:18:17;26.40;99.90
26479;DHT22;14163;-26.142;27.992;2022-12-18T19:20:53;26.40;99.90
26479;DHT22;14163;-26.142;27.992;2022-12-18T19:23:21;26.40;99.90
26479;DHT22;14163;-26.142;27.992;2022-12-18T19:25:50;26.40;99.90
26479;DHT22;14163;-26.142;27.992;2022-12-18T19:28:18;26.30;99.90
26479;DHT22;14163;-26.142;27.992;2022-12-18T19:30:53;26.30;99.90
26479;DHT22;14163;-26.142;27.992;2022-12-18T19:33:21;26.30;99.90
26479;DHT22;14163;-26.142;27.992;2022-12-18T19:35:50;26.30;99.90
26479;DHT22;14163;-26.142;27.992;2022-12-18T19:38:19;26.30;99.90
26479;DHT22;14163;-26.142;27.992;2022-12-18T19:40:47;26.30;99.90
26479;DHT22;14163;-26.142;27.992;2022-12-18T19:43:15;26.40;99.90
26479;DHT22;14163;-26.142;27.992;2022-12-18T19:45:44;26.40;99.90
26479;DHT22;14163;-26.142;27.992;2022-12-18T19:48:14;26.40;99.90
26479;DHT22;14163;-26.142;27.992;2022-12-18T19:50:42;26.30;99.90
26479;DHT22;14163;-26.142;27.992;2022-12-18T19:53:11;26.40;99.90
26479;DHT22;14163;-26.142;27.992;2022-12-18T19:55:40;26.40;99.90
26479;DHT22;14163;-26.142;27.992;2022-12-18T19:58:12;26.40;99.90
26479;DHT22;14163;-26.142;27.992;2022-12-18T20:00:40;26.40;99.90
26479;DHT22;14163;-26.142;27.992;2022-12-18T20:03:09;26.40;99.90
26479;DHT22;14163;-26.142;27.992;2022-12-18T20:05:39;26.40;99.90
26479;DHT22;14163;-26.142;27.992;2022-12-18T20:08:07;26.10;99.90
26479;DHT22;14163;-26.142;27.992;2022-12-18T20:10:36;25.90;99.90
26479;DHT22;14163;-26.142;27.992;2022-12-18T20:13:04;25.80;99.90
26479;DHT22;14163;-26.142;27.992;2022-12-18T20:15:33;25.70;99.90
26479;DHT22;14163;-26.142;27.992;2022-12-18T20:18:01;25.60;99.90
26479;DHT22;14163;-26.142;27.992;2022-12-18T20:20:29;25.60;99.90
26479;DHT22;14163;-26.142;27.992;2022-12-18T20:22:59;25.50;99.90
26479;DHT22;14163;-26.142;27.992;2022-12-18T20:25:28;25.40;99.90
26479;DHT22;14163;-26.142;27.992;2022-12-18T20:27:56;25.40;99.90
26479;DHT22;14163;-26.142;27.992;2022-12-18T20:30:24;25.50;99.90
26479;DHT22;14163;-26.142;27.992;2022-12-18T20:32:53;25.50;99.90
26479;DHT22;14163;-26.142;27.992;2022-12-18T20:35:21;25.50;99.90
26479;DHT22;14163;-26.142;27.992;2022-12-18T20:37:53;25.50;99.90
26479;DHT22;14163;-26.142;27.992;2022-12-18T20:40:23;25.40;99.90
26479;DHT22;14163;-26.142;27.992;2022-12-18T20:42:52;25.40;99.90
26479;DHT22;14163;-26.142;27.992;2022-12-18T20:45:20;25.50;99.90
26479;DHT22;14163;-26.142;27.992;2022-12-18T20:47:48;25.40;99.90
26479;DHT22;14163;-26.142;27.992;2022-12-18T20:50:17;25.40;99.90
26479;DHT22;14163;-26.142;27.992;2022-12-18T20:52:46;25.40;99.90
26479;DHT22;14163;-26.142;27.992;2022-12-18T20:55:14;25.20;99.90
26479;DHT22;14163;-26.142;27.992;2022-12-18T20:57:45;25.10;99.90
26479;DHT22;14163;-26.142;27.992;2022-12-18T21:00:14;25.10;99.90
26479;DHT22;14163;-26.142;27.992;2022-12-18T21:02:43;25.10;99.90
26479;DHT22;14163;-26.142;27.992;2022-12-18T21:05:11;25.10;99.90
26479;DHT22;14163;-26.142;27.992;2022-12-18T21:07:39;25.10;99.90
26479;DHT22;14163;-26.142;27.992;2022-12-18T21:10:08;25.20;99.90
26479;DHT22;14163;-26.142;27.992;2022-12-18T21:12:37;25.10;99.90
26479;DHT22;14163;-26.142;27.992;2022-12-18T21:15:13;25.20;99.90
26479;DHT22;14163;-26.142;27.992;2022-12-18T21:17:41;25.20;99.90
26479;DHT22;14163;-26.142;27.992;2022-12-18T21:20:10;25.10;99.90
26479;DHT22;14163;-26.142;27.992;2022-12-18T21:22:38;25.20;99.90
26479;DHT22;14163;-26.142;27.992;2022-12-18T21:25:07;25.20;99.90
26479;DHT22;14163;-26.142;27.992;2022-12-18T21:27:36;25.20;99.90
26479;DHT22;14163;-26.142;27.992;2022-12-18T21:30:04;25.30;99.90
26479;DHT22;14163;-26.142;27.992;2022-12-18T21:32:34;25.30;99.90
26479;DHT22;14163;-26.142;27.992;2022-12-18T21:35:03;25.50;99.90
26479;DHT22;14163;-26.142;27.992;2022-12-18T21:37:31;25.60;99.90
26479;DHT22;14163;-26.142;27.992;2022-12-18T21:40:00;25.60;99.90
26479;DHT22;14163;-26.142;27.992;2022-12-18T21:42:28;25.70;99.90
26479;DHT22;14163;-26.142;27.992;2022-12-18T21:45:13;25.70;99.90
26479;DHT22;14163;-26.142;27.992;2022-12-18T21:47:43;25.70;99.90
26479;DHT22;14163;-26.142;27.992;2022-12-18T21:50:12;25.60;99.90
26479;DHT22;14163;-26.142;27.992;2022-12-18T21:52:41;25.40;99.90
26479;DHT22;14163;-26.142;27.992;2022-12-18T21:55:09;25.30;99.90
26479;DHT22;14163;-26.142;27.992;2022-12-18T21:57:37;25.20;99.90
26479;DHT22;14163;-26.142;27.992;2022-12-18T22:00:08;25.10;99.90
26479;DHT22;14163;-26.142;27.992;2022-12-18T22:02:37;25.10;99.90
26479;DHT22;14163;-26.142;27.992;2022-12-18T22:05:08;25.10;99.90
26479;DHT22;14163;-26.142;27.992;2022-12-18T22:07:36;25.00;99.90
26479;DHT22;14163;-26.142;27.992;2022-12-18T22:10:05;24.90;99.90
26479;DHT22;14163;-26.142;27.992;2022-12-18T22:12:33;24.80;99.90
26479;DHT22;14163;-26.142;27.992;2022-12-18T22:15:04;24.80;99.90
26479;DHT22;14163;-26.142;27.992;2022-12-18T22:17:33;24.60;99.90
26479;DHT22;14163;-26.142;27.992;2022-12-18T22:20:01;24.60;99.90
26479;DHT22;14163;-26.142;27.992;2022-12-18T22:22:31;24.70;99.90
26479;DHT22;14163;-26.142;27.992;2022-12-18T22:24:59;24.80;99.90
26479;DHT22;14163;-26.142;27.992;2022-12-18T22:27:28;24.80;99.90
26479;DHT22;14163;-26.142;27.992;2022-12-18T22:29:56;24.90;99.90
26479;DHT22;14163;-26.142;27.992;2022-12-18T22:32:32;25.10;99.90
26479;DHT22;14163;-26.142;27.992;2022-12-18T22:35:00;25.10;99.90
26479;DHT22;14163;-26.142;27.992;2022-12-18T22:37:29;25.10;99.90
26479;DHT22;14163;-26.142;27.992;2022-12-18T22:39:59;25.20;99.90
26479;DHT22;14163;-26.142;27.992;2022-12-18T22:42:27;25.10;99.90
26479;DHT22;14163;-26.142;27.992;2022-12-18T22:44:55;25.10;99.90
26479;DHT22;14163;-26.142;27.992;2022-12-18T22:47:25;25.10;99.90
26479;DHT22;14163;-26.142;27.992;2022-12-18T22:49:53;25.10;99.90
26479;DHT22;14163;-26.142;27.992;2022-12-18T22:52:21;25.20;99.90
26479;DHT22;14163;-26.142;27.992;2022-12-18T22:54:49;25.20;99.90
26479;DHT22;14163;-26.142;27.992;2022-12-18T22:57:19;25.20;99.90
26479;DHT22;14163;-26.142;27.992;2022-12-18T22:59:48;25.20;99.90
26479;DHT22;14163;-26.142;27.992;2022-12-18T23:02:16;25.20;99.90
26479;DHT22;14163;-26.142;27.992;2022-12-18T23:04:44;25.20;99.90
26479;DHT22;14163;-26.142;27.992;2022-12-18T23:07:16;25.10;99.90
26479;DHT22;14163;-26.142;27.992;2022-12-18T23:09:44;25.20;99.90
26479;DHT22;14163;-26.142;27.992;2022-12-18T23:12:14;25.20;99.90
26479;DHT22;14163;-26.142;27.992;2022-12-18T23:14:44;25.20;99.90
26479;DHT22;14163;-26.142;27.992;2022-12-18T23:17:12;25.20;99.90
26479;DHT22;14163;-26.142;27.992;2022-12-18T23:19:40;25.10;99.90
26479;DHT22;14163;-26.142;27.992;2022-12-18T23:22:09;25.10;99.90
26479;DHT22;14163;-26.142;27.992;2022-12-18T23:24:37;25.10;99.90
26479;DHT22;14163;-26.142;27.992;2022-12-18T23:27:05;25.10;99.90
26479;DHT22;14163;-26.142;27.992;2022-12-18T23:29:34;25.00;99.90
26479;DHT22;14163;-26.142;27.992;2022-12-18T23:32:04;24.80;99.90
26479;DHT22;14163;-26.142;27.992;2022-12-18T23:34:32;24.50;99.90
26479;DHT22;14163;-26.142;27.992;2022-12-18T23:37:01;24.50;99.90
26479;DHT22;14163;-26.142;27.992;2022-12-18T23:39:29;24.50;99.90
26479;DHT22;14163;-26.142;27.992;2022-12-18T23:41:57;24.40;99.90
26479;DHT22;14163;-26.142;27.992;2022-12-18T23:44:26;24.30;99.90
26479;DHT22;14163;-26.142;27.992;2022-12-18T23:46:54;24.20;99.90
26479;DHT22;14163;-26.142;27.992;2022-12-18T23:49:24;24.10;99.90
26479;DHT22;14163;-26.142;27.992;2022-12-18T23:51:53;24.10;99.90
26479;DHT22;14163;-26.142;27.992;2022-12-18T23:54:21;24.10;99.90
26479;DHT22;14163;-26.142;27.992;2022-12-18T23:56:49;24.20;99.90
26479;DHT22;14163;-26.142;27.992;2022-12-18T23:59:17;24.30;99.90
